Time;durP1;ratioP1;P1;durP2;ratioP2;P2;SDS_P1;SDS_P2;PMS_P1;PMS_P2;Temp;Humidity;BMP_temperature;BMP_pressure;BME280_temperature;BME280_humidity;BME280_pressure;Samples;Min_cycle;Max_cycle;Signal;HPM_P1;HPM_P2
2023/09/27 00:00:10;;;;;;;4.25;2.50;;;;;;;;;;5057875;28;20041;-80
2023/09/27 00:02:40;;;;;;;3.40;2.20;;;;;;;;;;5056309;28;20470;-82
2023/09/27 00:05:07;;;;;;;3.88;2.15;;;;;;;;;;5058052;28;20048;-80
2023/09/27 00:07:35;;;;;;;3.35;2.15;;;;;;;;;;5056681;28;20033;-82
2023/09/27 00:10:01;;;;;;;2.40;2.20;;;;;;;;;;5057590;28;20032;-80
2023/09/27 00:12:27;;;;;;;3.75;2.25;;;;;;;;;;5057364;28;20036;-80
2023/09/27 00:14:53;;;;;;;2.78;2.28;;;;;;;;;;5057796;28;20457;-83
2023/09/27 00:17:19;;;;;;;2.72;2.22;;;;;;;;;;5057715;28;20040;-80
2023/09/27 00:19:45;;;;;;;3.13;2.17;;;;;;;;;;5056145;28;20443;-79
2023/09/27 00:22:10;;;;;;;3.10;2.15;;;;;;;;;;5056295;28;20036;-82
2023/09/27 00:24:36;;;;;;;2.65;2.00;;;;;;;;;;5054622;28;20044;-82
2023/09/27 00:27:02;;;;;;;3.85;2.88;;;;;;;;;;5054542;28;20025;-80
2023/09/27 00:29:27;;;;;;;4.80;2.70;;;;;;;;;;5056957;28;20111;-81
2023/09/27 00:31:52;;;;;;;4.10;2.50;;;;;;;;;;5065313;28;20581;-82
2023/09/27 00:34:18;;;;;;;4.07;2.40;;;;;;;;;;5055952;28;20025;-81
2023/09/27 00:36:44;;;;;;;3.90;2.50;;;;;;;;;;5055619;28;20029;-81
2023/09/27 00:39:10;;;;;;;10.27;2.25;;;;;;;;;;5056938;28;20033;-83
2023/09/27 00:41:35;;;;;;;3.88;2.53;;;;;;;;;;5056913;28;20044;-82
2023/09/27 00:44:01;;;;;;;3.92;2.78;;;;;;;;;;5058129;28;20033;-83
2023/09/27 00:46:26;;;;;;;3.95;2.60;;;;;;;;;;5040292;28;20482;-83
2023/09/27 00:48:54;;;;;;;4.28;2.03;;;;;;;;;;5056765;28;20096;-81
2023/09/27 00:51:20;;;;;;;2.50;1.80;;;;;;;;;;5055661;28;20394;-81
2023/09/27 00:53:48;;;;;;;2.55;1.90;;;;;;;;;;5056194;28;20071;-82
2023/09/27 00:56:13;;;;;;;3.05;2.10;;;;;;;;;;5055688;28;20525;-81
2023/09/27 00:58:39;;;;;;;2.50;2.00;;;;;;;;;;5057832;28;20025;-82
2023/09/27 01:01:05;;;;;;;2.97;2.17;;;;;;;;;;5056265;28;20040;-83
2023/09/27 01:03:32;;;;;;;3.67;2.20;;;;;;;;;;5055986;28;20569;-83
2023/09/27 01:05:58;;;;;;;3.05;2.38;;;;;;;;;;5056042;28;20502;-81
2023/09/27 01:08:23;;;;;;;4.80;2.28;;;;;;;;;;5057367;28;20491;-82
2023/09/27 01:10:49;;;;;;;3.30;2.35;;;;;;;;;;5054440;28;20103;-84
2023/09/27 01:13:14;;;;;;;3.92;2.58;;;;;;;;;;5039493;28;20072;-83
2023/09/27 01:15:40;;;;;;;3.40;2.65;;;;;;;;;;5055774;28;20025;-82
2023/09/27 01:18:06;;;;;;;3.42;2.50;;;;;;;;;;5055845;28;20033;-82
2023/09/27 01:20:34;;;;;;;4.95;2.80;;;;;;;;;;5055615;28;20671;-83
2023/09/27 01:23:02;;;;;;;5.07;3.33;;;;;;;;;;5055825;28;20402;-83
2023/09/27 01:25:37;;;;;;;3.75;2.55;;;;;;;;;;5052063;28;20495;-82
2023/09/27 01:28:06;;;;;;;5.13;2.13;;;;;;;;;;5038552;28;20464;-83
2023/09/27 01:30:32;;;;;;;5.88;2.30;;;;;;;;;;5053455;28;20070;-82
2023/09/27 01:33:06;;;;;;;3.85;2.13;;;;;;;;;;5056548;28;20108;-83
2023/09/27 01:35:38;;;;;;;;;;;;;;;;;;5054846;28;20515;-81
2023/09/27 01:38:05;;;;;;;4.28;2.30;;;;;;;;;;5054784;28;19913;-82
2023/09/27 01:40:32;;;;;;;4.88;2.35;;;;;;;;;;5055344;28;20025;-80
2023/09/27 01:43:02;;;;;;;6.88;3.90;;;;;;;;;;5054875;28;20040;-82
2023/09/27 01:45:32;;;;;;;4.93;3.22;;;;;;;;;;5052747;28;20033;-81
2023/09/27 01:47:58;;;;;;;7.38;3.15;;;;;;;;;;5065401;28;20037;-82
2023/09/27 01:50:25;;;;;;;4.78;3.20;;;;;;;;;;5055101;28;20041;-79
2023/09/27 01:52:54;;;;;;;4.35;3.35;;;;;;;;;;5055490;28;20043;-83
2023/09/27 01:55:21;;;;;;;6.72;3.53;;;;;;;;;;5054676;28;20059;-82
2023/09/27 01:57:46;;;;;;;5.10;3.38;;;;;;;;;;5056927;28;20090;-82
2023/09/27 02:00:14;;;;;;;5.78;3.67;;;;;;;;;;5055486;28;20150;-82
2023/09/27 02:02:45;;;;;;;4.63;3.50;;;;;;;;;;5054800;28;20036;-82
2023/09/27 02:05:10;;;;;;;4.55;3.58;;;;;;;;;;5054060;28;20040;-81
2023/09/27 02:07:39;;;;;;;4.78;3.42;;;;;;;;;;5055974;28;20041;-82
2023/09/27 02:10:09;;;;;;;4.38;3.28;;;;;;;;;;5061737;28;20036;-83
2023/09/27 02:12:36;;;;;;;5.85;3.60;;;;;;;;;;5054507;28;20036;-82
2023/09/27 02:15:03;;;;;;;4.20;3.10;;;;;;;;;;5056033;28;20040;-82
2023/09/27 02:17:28;;;;;;;5.47;3.50;;;;;;;;;;5054573;28;20556;-84
2023/09/27 02:19:55;;;;;;;5.57;3.10;;;;;;;;;;5054416;28;20041;-83
2023/09/27 02:22:20;;;;;;;8.82;3.33;;;;;;;;;;5054012;28;20088;-80
2023/09/27 02:24:47;;;;;;;7.38;3.22;;;;;;;;;;5054486;28;20519;-81
2023/09/27 02:27:14;;;;;;;5.97;3.03;;;;;;;;;;5054343;28;20060;-80
2023/09/27 02:29:43;;;;;;;5.40;3.20;;;;;;;;;;5051355;28;20068;-83
2023/09/27 02:32:09;;;;;;;4.03;2.80;;;;;;;;;;5054054;28;20043;-82
2023/09/27 02:34:35;;;;;;;4.43;2.90;;;;;;;;;;5054434;28;20040;-83
2023/09/27 02:37:02;;;;;;;4.22;2.90;;;;;;;;;;5053932;28;20033;-84
2023/09/27 02:39:31;;;;;;;3.15;2.53;;;;;;;;;;5053900;28;20036;-83
2023/09/27 02:41:57;;;;;;;4.85;3.05;;;;;;;;;;5053855;28;20047;-82
2023/09/27 02:44:23;;;;;;;3.75;2.60;;;;;;;;;;5054832;28;20043;-81
2023/09/27 02:46:51;;;;;;;3.72;2.92;;;;;;;;;;5052961;28;20041;-82
2023/09/27 02:49:16;;;;;;;4.07;2.70;;;;;;;;;;5052838;28;21006;-80
2023/09/27 02:51:41;;;;;;;4.45;2.65;;;;;;;;;;5054635;28;20037;-80
2023/09/27 02:54:07;;;;;;;4.00;2.80;;;;;;;;;;5052934;28;20095;-79
2023/09/27 02:56:32;;;;;;;4.60;2.80;;;;;;;;;;5052386;28;20124;-82
2023/09/27 02:58:58;;;;;;;3.13;2.65;;;;;;;;;;5051609;28;20048;-81
2023/09/27 03:01:24;;;;;;;3.20;2.50;;;;;;;;;;5052347;28;20033;-82
2023/09/27 03:03:51;;;;;;;4.65;2.60;;;;;;;;;;5064100;28;20040;-80
2023/09/27 03:06:17;;;;;;;3.90;2.72;;;;;;;;;;5055514;28;20110;-83
2023/09/27 03:08:46;;;;;;;3.83;2.55;;;;;;;;;;5037579;28;20037;-81
2023/09/27 03:11:12;;;;;;;4.43;3.15;;;;;;;;;;5055023;28;20048;-81
2023/09/27 03:13:40;;;;;;;3.78;2.60;;;;;;;;;;5054123;28;20041;-80
2023/09/27 03:16:05;;;;;;;3.47;2.30;;;;;;;;;;5053645;28;20132;-83
2023/09/27 03:18:31;;;;;;;3.88;2.30;;;;;;;;;;5055364;28;20056;-82
2023/09/27 03:20:58;;;;;;;7.00;2.40;;;;;;;;;;5054367;28;20041;-82
2023/09/27 03:23:25;;;;;;;3.90;2.13;;;;;;;;;;5053930;28;20127;-82
2023/09/27 03:25:51;;;;;;;4.25;2.60;;;;;;;;;;5053625;28;20489;-80
2023/09/27 03:28:17;;;;;;;3.30;2.35;;;;;;;;;;5037015;28;20033;-82
2023/09/27 03:30:43;;;;;;;3.38;2.42;;;;;;;;;;5052930;28;20335;-82
2023/09/27 03:33:09;;;;;;;4.35;2.50;;;;;;;;;;5054692;28;20033;-81
2023/09/27 03:35:34;;;;;;;2.97;2.53;;;;;;;;;;5053564;28;20029;-82
2023/09/27 03:38:00;;;;;;;3.58;2.63;;;;;;;;;;5054906;28;20684;-82
2023/09/27 03:40:26;;;;;;;4.90;2.90;;;;;;;;;;5055167;28;20037;-83
2023/09/27 03:42:51;;;;;;;3.78;2.72;;;;;;;;;;5053756;28;20037;-82
2023/09/27 03:45:17;;;;;;;5.38;2.75;;;;;;;;;;5053648;28;20410;-83
2023/09/27 03:47:44;;;;;;;6.20;3.00;;;;;;;;;;5052989;28;20029;-83
2023/09/27 03:50:12;;;;;;;4.20;3.17;;;;;;;;;;5053085;28;20029;-82
2023/09/27 03:52:42;;;;;;;3.80;3.05;;;;;;;;;;5052912;28;20037;-81
2023/09/27 03:55:11;;;;;;;5.22;3.00;;;;;;;;;;5053134;28;20040;-82
2023/09/27 03:57:39;;;;;;;4.20;3.20;;;;;;;;;;5053803;28;20033;-80
2023/09/27 04:00:13;;;;;;;4.03;2.85;;;;;;;;;;5049031;28;20056;-81
2023/09/27 04:02:41;;;;;;;6.57;3.10;;;;;;;;;;5052165;28;20078;-80
2023/09/27 04:05:07;;;;;;;8.05;3.85;;;;;;;;;;5035617;28;20102;-79
2023/09/27 04:07:33;;;;;;;5.43;3.63;;;;;;;;;;5052073;28;20033;-82
2023/09/27 04:10:00;;;;;;;4.82;3.83;;;;;;;;;;5051491;28;20037;-81
2023/09/27 04:12:26;;;;;;;5.70;3.05;;;;;;;;;;5052237;28;20033;-82
2023/09/27 04:14:52;;;;;;;5.70;3.80;;;;;;;;;;5052405;28;20032;-81
2023/09/27 04:17:17;;;;;;;4.72;3.30;;;;;;;;;;5050831;28;20084;-80
2023/09/27 04:19:43;;;;;;;5.55;3.67;;;;;;;;;;5059357;28;20035;-81
2023/09/27 04:22:09;;;;;;;5.50;3.40;;;;;;;;;;5058129;28;20550;-80
2023/09/27 04:24:35;;;;;;;5.72;3.15;;;;;;;;;;5050985;28;20486;-81
2023/09/27 04:27:00;;;;;;;3.53;2.78;;;;;;;;;;5054309;28;20037;-80
2023/09/27 04:29:28;;;;;;;3.85;3.15;;;;;;;;;;5054383;28;20071;-81
2023/09/27 04:31:54;;;;;;;4.03;2.90;;;;;;;;;;5054567;28;20044;-81
2023/09/27 04:34:19;;;;;;;6.70;3.13;;;;;;;;;;5053035;28;20410;-82
2023/09/27 04:36:45;;;;;;;5.07;3.08;;;;;;;;;;5054887;28;20025;-81
2023/09/27 04:39:17;;;;;;;6.90;3.33;;;;;;;;;;5054568;28;20092;-82
2023/09/27 04:41:46;;;;;;;4.93;3.70;;;;;;;;;;5054468;28;20044;-84
2023/09/27 04:44:15;;;;;;;5.95;3.00;;;;;;;;;;5054880;28;20100;-82
2023/09/27 04:46:41;;;;;;;5.90;3.38;;;;;;;;;;5052054;28;20033;-81
2023/09/27 04:49:07;;;;;;;3.75;2.80;;;;;;;;;;5057057;28;20028;-81
2023/09/27 04:51:33;;;;;;;3.92;3.05;;;;;;;;;;5057963;28;20033;-82
2023/09/27 04:54:02;;;;;;;5.22;3.17;;;;;;;;;;5058589;28;20127;-82
2023/09/27 04:56:27;;;;;;;4.50;3.33;;;;;;;;;;5054770;28;20029;-82
2023/09/27 04:58:53;;;;;;;5.50;3.60;;;;;;;;;;5056257;28;20524;-83
2023/09/27 05:01:18;;;;;;;7.25;3.20;;;;;;;;;;5057137;28;20060;-83
2023/09/27 05:03:44;;;;;;;4.55;3.08;;;;;;;;;;5057381;28;20063;-84
2023/09/27 05:06:09;;;;;;;6.32;3.42;;;;;;;;;;5055851;28;20372;-82
2023/09/27 05:08:35;;;;;;;3.95;3.03;;;;;;;;;;5055531;28;20094;-81
2023/09/27 05:11:00;;;;;;;4.05;3.10;;;;;;;;;;5054918;28;20024;-78
2023/09/27 05:13:26;;;;;;;6.25;3.10;;;;;;;;;;5056067;28;20510;-80
2023/09/27 05:15:52;;;;;;;4.95;3.60;;;;;;;;;;5055475;28;20494;-80
2023/09/27 05:18:19;;;;;;;6.43;3.25;;;;;;;;;;5055383;28;20024;-79
2023/09/27 05:20:44;;;;;;;5.68;3.50;;;;;;;;;;5055554;28;20041;-80
2023/09/27 05:23:12;;;;;;;6.78;3.35;;;;;;;;;;5055608;28;20094;-81
2023/09/27 05:25:38;;;;;;;5.22;3.28;;;;;;;;;;5052477;28;20043;-81
2023/09/27 05:28:04;;;;;;;5.50;3.40;;;;;;;;;;5053492;28;20037;-80
2023/09/27 05:30:31;;;;;;;7.05;3.53;;;;;;;;;;5049629;28;20037;-81
2023/09/27 05:32:57;;;;;;;5.22;3.00;;;;;;;;;;5054044;28;20051;-82
2023/09/27 05:35:23;;;;;;;4.80;3.35;;;;;;;;;;5052233;28;20032;-81
2023/09/27 05:37:49;;;;;;;4.68;3.30;;;;;;;;;;5066002;28;20157;-78
2023/09/27 05:40:15;;;;;;;7.30;3.97;;;;;;;;;;5056691;28;20048;-84
2023/09/27 05:42:40;;;;;;;4.57;3.20;;;;;;;;;;5056791;28;20064;-83
2023/09/27 05:45:13;;;;;;;5.82;3.40;;;;;;;;;;5055220;28;20041;-81
2023/09/27 05:47:39;;;;;;;4.40;2.90;;;;;;;;;;5054550;28;20044;-82
2023/09/27 05:50:08;;;;;;;5.03;2.92;;;;;;;;;;5051689;28;20029;-81
2023/09/27 05:52:36;;;;;;;6.30;3.38;;;;;;;;;;5052215;28;20445;-82
2023/09/27 05:55:05;;;;;;;6.32;3.17;;;;;;;;;;5054577;28;20040;-81
2023/09/27 05:57:31;;;;;;;6.75;3.08;;;;;;;;;;5056264;28;20592;-81
2023/09/27 05:59:58;;;;;;;3.42;2.75;;;;;;;;;;5058473;28;20031;-80
2023/09/27 06:02:30;;;;;;;6.28;2.85;;;;;;;;;;5056609;28;20037;-82
2023/09/27 06:04:57;;;;;;;4.80;2.70;;;;;;;;;;5054616;28;20032;-82
2023/09/27 06:07:22;;;;;;;6.82;2.63;;;;;;;;;;5055536;28;20083;-85
2023/09/27 06:09:48;;;;;;;4.28;2.60;;;;;;;;;;5053950;28;20033;-81
2023/09/27 06:12:14;;;;;;;5.78;3.13;;;;;;;;;;5055782;28;20091;-80
2023/09/27 06:14:43;;;;;;;5.55;2.88;;;;;;;;;;5052195;28;20036;-81
2023/09/27 06:17:09;;;;;;;5.65;3.20;;;;;;;;;;5056299;28;20037;-78
2023/09/27 06:19:34;;;;;;;6.68;2.80;;;;;;;;;;5059468;28;20036;-79
2023/09/27 06:22:04;;;;;;;4.35;3.13;;;;;;;;;;5057081;28;20406;-80
2023/09/27 06:24:30;;;;;;;6.60;3.00;;;;;;;;;;5057086;28;20083;-81
2023/09/27 06:26:57;;;;;;;6.97;3.50;;;;;;;;;;5058535;28;20041;-80
2023/09/27 06:29:22;;;;;;;6.43;3.33;;;;;;;;;;5057832;28;20041;-81
2023/09/27 06:31:53;;;;;;;5.00;3.30;;;;;;;;;;5057810;28;20040;-81
2023/09/27 06:34:19;;;;;;;6.38;3.08;;;;;;;;;;5056577;28;20079;-81
2023/09/27 06:36:48;;;;;;;5.40;3.25;;;;;;;;;;5055715;28;20041;-80
2023/09/27 06:39:15;;;;;;;4.45;2.97;;;;;;;;;;5052532;28;20032;-81
2023/09/27 06:41:41;;;;;;;6.15;3.28;;;;;;;;;;5057555;28;20130;-81
2023/09/27 06:44:08;;;;;;;6.28;3.08;;;;;;;;;;5056308;28;20033;-82
2023/09/27 06:46:35;;;;;;;4.50;2.70;;;;;;;;;;5055519;28;20175;-80
2023/09/27 06:49:01;;;;;;;5.47;2.85;;;;;;;;;;5054227;28;20784;-81
2023/09/27 06:51:26;;;;;;;4.20;2.78;;;;;;;;;;5048756;28;20052;-82
2023/09/27 06:53:52;;;;;;;5.20;2.70;;;;;;;;;;5063284;28;20060;-83
2023/09/27 06:56:18;;;;;;;3.92;2.97;;;;;;;;;;5055066;28;20509;-82
2023/09/27 06:58:43;;;;;;;4.93;2.95;;;;;;;;;;5055259;28;20040;-80
2023/09/27 07:01:10;;;;;;;3.95;2.92;;;;;;;;;;5055946;28;20112;-80
2023/09/27 07:03:36;;;;;;;3.88;2.70;;;;;;;;;;5055183;28;20052;-80
2023/09/27 07:06:02;;;;;;;5.10;2.65;;;;;;;;;;5055811;28;20037;-79
2023/09/27 07:08:28;;;;;;;5.50;3.08;;;;;;;;;;5053719;28;20036;-81
2023/09/27 07:11:01;;;;;;;4.60;3.30;;;;;;;;;;5055217;28;20136;-81
2023/09/27 07:13:27;;;;;;;5.35;3.38;;;;;;;;;;5050298;28;20066;-79
2023/09/27 07:15:54;;;;;;;7.25;3.22;;;;;;;;;;5054929;28;20127;-82
2023/09/27 07:18:20;;;;;;;3.83;2.88;;;;;;;;;;5053173;28;20048;-79
2023/09/27 07:20:46;;;;;;;7.22;3.33;;;;;;;;;;5054522;28;20036;-79
2023/09/27 07:23:15;;;;;;;4.85;3.17;;;;;;;;;;5054899;28;20107;-81
2023/09/27 07:25:42;;;;;;;4.20;3.22;;;;;;;;;;5053815;28;20028;-82
2023/09/27 07:28:07;;;;;;;5.15;3.50;;;;;;;;;;5053978;28;20032;-80
2023/09/27 07:30:34;;;;;;;4.15;3.30;;;;;;;;;;5053716;28;20037;-81
2023/09/27 07:33:00;;;;;;;5.43;3.05;;;;;;;;;;5051911;28;20032;-80
2023/09/27 07:35:29;;;;;;;11.95;4.22;;;;;;;;;;5056319;28;20465;-80
2023/09/27 07:37:55;;;;;;;9.98;3.42;;;;;;;;;;5052735;28;20044;-78
2023/09/27 07:40:20;;;;;;;7.60;3.28;;;;;;;;;;5054052;28;20028;-81
2023/09/27 07:42:47;;;;;;;5.65;3.05;;;;;;;;;;5052627;28;20207;-81
2023/09/27 07:45:39;;;;;;;6.57;3.47;;;;;;;;;;5053106;28;20111;-81
2023/09/27 07:48:02;;;;;;;6.53;3.38;;;;;;;;;;5051797;28;20102;-81
2023/09/27 07:50:28;;;;;;;5.63;3.00;;;;;;;;;;5050665;28;20033;-80
2023/09/27 07:52:54;;;;;;;5.80;3.05;;;;;;;;;;5050348;28;20020;-82
2023/09/27 07:55:21;;;;;;;7.78;3.05;;;;;;;;;;5051702;28;20033;-81
2023/09/27 07:57:47;;;;;;;5.15;3.15;;;;;;;;;;5050580;28;20048;-79
2023/09/27 08:00:18;;;;;;;5.93;3.10;;;;;;;;;;5049820;28;20033;-83
2023/09/27 08:02:45;;;;;;;6.88;2.92;;;;;;;;;;5052191;28;20059;-80
2023/09/27 08:05:11;;;;;;;7.32;2.80;;;;;;;;;;5053587;28;20486;-81
2023/09/27 08:07:40;;;;;;;5.63;2.63;;;;;;;;;;5051088;28;20073;-84
2023/09/27 08:10:07;;;;;;;4.72;3.03;;;;;;;;;;5058561;28;20077;-82
2023/09/27 08:12:34;;;;;;;5.13;3.25;;;;;;;;;;5052218;28;20056;-80
2023/09/27 08:15:03;;;;;;;4.47;2.90;;;;;;;;;;5054112;28;20094;-80
2023/09/27 08:17:30;;;;;;;5.40;3.00;;;;;;;;;;5055009;28;20037;-82
2023/09/27 08:19:55;;;;;;;8.10;2.95;;;;;;;;;;5056295;28;20044;-80
2023/09/27 08:22:20;;;;;;;4.90;2.92;;;;;;;;;;5057276;28;20032;-83
2023/09/27 08:24:46;;;;;;;5.20;3.10;;;;;;;;;;5055591;28;20072;-82
2023/09/27 08:27:12;;;;;;;4.32;2.80;;;;;;;;;;5057083;28;20060;-80
2023/09/27 08:29:37;;;;;;;4.80;2.97;;;;;;;;;;5062687;28;20119;-80
2023/09/27 08:32:06;;;;;;;6.78;3.10;;;;;;;;;;5041762;28;20036;-79
2023/09/27 08:34:32;;;;;;;5.97;3.15;;;;;;;;;;5049341;28;20044;-79
2023/09/27 08:36:59;;;;;;;5.47;3.13;;;;;;;;;;5056097;28;20041;-78
2023/09/27 08:39:30;;;;;;;6.60;3.10;;;;;;;;;;5056001;28;20071;-82
2023/09/27 08:41:58;;;;;;;4.32;2.90;;;;;;;;;;5052752;28;20036;-79
2023/09/27 08:44:24;;;;;;;5.47;3.00;;;;;;;;;;5055801;28;20052;-80
2023/09/27 08:46:51;;;;;;;8.05;3.30;;;;;;;;;;5055869;28;20036;-81
2023/09/27 08:49:17;;;;;;;5.30;3.00;;;;;;;;;;5057049;28;20041;-82
2023/09/27 08:51:44;;;;;;;5.90;3.00;;;;;;;;;;5054610;28;20154;-79
2023/09/27 08:54:12;;;;;;;6.03;3.03;;;;;;;;;;5054900;28;20040;-80
2023/09/27 08:56:37;;;;;;;5.60;3.20;;;;;;;;;;5055236;28;20091;-81
2023/09/27 08:59:04;;;;;;;8.52;3.20;;;;;;;;;;5053915;28;20028;-79
2023/09/27 09:01:33;;;;;;;4.05;2.75;;;;;;;;;;5051700;28;20524;-80
2023/09/27 09:04:00;;;;;;;6.57;2.83;;;;;;;;;;5056314;28;20044;-80
2023/09/27 09:06:27;;;;;;;6.32;3.05;;;;;;;;;;5055372;28;20033;-80
2023/09/27 09:08:52;;;;;;;7.05;3.15;;;;;;;;;;5053511;28;20040;-77
2023/09/27 09:11:18;;;;;;;5.32;3.00;;;;;;;;;;5054057;28;20045;-79
2023/09/27 09:14:04;;;;;;;6.15;3.33;;;;;;;;;;5054847;28;20086;-80
2023/09/27 09:16:39;;;;;;;4.45;3.00;;;;;;;;;;5066816;28;20409;-80
2023/09/27 09:19:24;;;;;;;4.95;3.28;;;;;;;;;;5053835;28;20486;-81
2023/09/27 09:22:03;;;;;;;4.63;3.03;;;;;;;;;;5052950;28;20043;-82
2023/09/27 09:24:29;;;;;;;4.60;3.47;;;;;;;;;;5063460;28;20039;-80
2023/09/27 09:27:12;;;;;;;4.80;3.10;;;;;;;;;;5056837;28;20061;-81
2023/09/27 09:29:46;;;;;;;4.93;3.60;;;;;;;;;;5055761;28;20064;-82
2023/09/27 09:32:20;;;;;;;5.93;3.60;;;;;;;;;;5055352;28;20449;-83
2023/09/27 09:34:49;;;;;;;;;;;;;;;;;;5058266;28;20048;-81
2023/09/27 09:37:23;;;;;;;7.25;3.20;;;;;;;;;;5056836;28;19916;-82
2023/09/27 09:39:53;;;;;;;5.93;3.60;;;;;;;;;;5054026;28;20032;-82
2023/09/27 09:42:34;;;;;;;6.75;3.92;;;;;;;;;;5055184;28;20037;-79
2023/09/27 09:45:10;;;;;;;6.90;4.50;;;;;;;;;;5054927;28;20545;-82
2023/09/27 09:47:37;;;;;;;9.68;4.35;;;;;;;;;;5057838;28;20056;-83
2023/09/27 09:50:08;;;;;;;5.65;4.32;;;;;;;;;;5059747;28;20033;-80
2023/09/27 09:52:39;;;;;;;6.57;4.30;;;;;;;;;;5052594;28;20060;-79
2023/09/27 09:55:11;;;;;;;6.40;4.20;;;;;;;;;;5054476;28;20040;-81
2023/09/27 09:57:39;;;;;;;5.78;4.47;;;;;;;;;;5054199;28;20452;-80
2023/09/27 10:03:07;;;;;;;7.93;4.80;;;;;;;;;;5049699;28;20025;-80
2023/09/27 10:05:39;;;;;;;7.10;4.75;;;;;;;;;;5055246;28;20041;-81
2023/09/27 10:08:06;;;;;;;10.75;4.75;;;;;;;;;;5047055;28;20040;-83
2023/09/27 10:10:33;;;;;;;9.00;5.32;;;;;;;;;;5055914;28;20088;-81
2023/09/27 10:13:00;;;;;;;6.72;4.25;;;;;;;;;;5055976;28;20388;-82
2023/09/27 10:15:26;;;;;;;6.03;4.15;;;;;;;;;;5054219;28;20033;-83
2023/09/27 10:18:20;;;;;;;9.40;4.35;;;;;;;;;;5054840;28;20507;-81
2023/09/27 10:21:00;;;;;;;8.32;4.63;;;;;;;;;;5055046;28;20058;-82
2023/09/27 10:23:26;;;;;;;8.73;4.32;;;;;;;;;;5054839;28;20072;-82
2023/09/27 10:25:52;;;;;;;6.15;3.83;;;;;;;;;;5055463;28;20095;-81
2023/09/27 10:28:17;;;;;;;10.85;4.78;;;;;;;;;;5053409;28;20041;-82
2023/09/27 10:30:48;;;;;;;6.13;4.07;;;;;;;;;;5052589;28;20458;-80
2023/09/27 10:33:16;;;;;;;7.78;4.35;;;;;;;;;;5052584;28;20041;-79
2023/09/27 10:35:46;;;;;;;7.30;4.00;;;;;;;;;;5052724;28;20062;-80
2023/09/27 10:38:13;;;;;;;6.97;3.78;;;;;;;;;;5032618;28;20726;-80
2023/09/27 10:40:45;;;;;;;5.82;3.92;;;;;;;;;;5055678;28;20029;-81
2023/09/27 10:43:38;;;;;;;6.00;3.67;;;;;;;;;;5045940;28;20044;-82
2023/09/27 10:46:04;;;;;;;6.32;3.67;;;;;;;;;;5052828;28;20551;-81
2023/09/27 10:48:37;;;;;;;6.07;3.72;;;;;;;;;;5053459;28;20495;-81
2023/09/27 10:51:03;;;;;;;8.70;4.10;;;;;;;;;;5045562;28;20044;-82
2023/09/27 10:53:32;;;;;;;6.45;3.85;;;;;;;;;;5041554;28;20037;-82
2023/09/27 10:55:58;;;;;;;10.55;4.35;;;;;;;;;;5055234;28;20068;-82
2023/09/27 10:58:23;;;;;;;6.32;3.47;;;;;;;;;;5055285;28;20633;-83
2023/09/27 11:00:50;;;;;;;6.93;4.00;;;;;;;;;;5054292;28;20048;-85
2023/09/27 11:03:16;;;;;;;6.68;4.25;;;;;;;;;;5055359;28;20116;-84
2023/09/27 11:05:42;;;;;;;7.97;4.10;;;;;;;;;;5054975;28;20533;-81
2023/09/27 11:08:07;;;;;;;6.28;3.63;;;;;;;;;;5055625;28;20037;-81
2023/09/27 11:10:34;;;;;;;8.80;4.00;;;;;;;;;;5055174;28;20025;-84
2023/09/27 11:13:10;;;;;;;4.93;4.00;;;;;;;;;;5054740;28;20045;-83
2023/09/27 11:15:37;;;;;;;9.75;4.22;;;;;;;;;;5054613;28;20458;-81
2023/09/27 11:18:04;;;;;;;7.53;3.70;;;;;;;;;;5053403;28;20029;-82
2023/09/27 11:20:30;;;;;;;9.05;4.07;;;;;;;;;;5053895;28;20131;-82
2023/09/27 11:22:59;;;;;;;6.18;3.90;;;;;;;;;;5053605;28;20501;-83
2023/09/27 11:25:40;;;;;;;6.28;3.60;;;;;;;;;;5054778;28;20044;-80
2023/09/27 11:28:06;;;;;;;7.47;3.40;;;;;;;;;;5036200;28;20040;-81
2023/09/27 11:30:33;;;;;;;7.50;4.57;;;;;;;;;;5053445;28;20033;-79
2023/09/27 11:33:01;;;;;;;5.20;3.45;;;;;;;;;;5049358;28;20024;-81
2023/09/27 11:35:27;;;;;;;5.68;3.58;;;;;;;;;;5053133;28;20041;-80
2023/09/27 11:38:12;;;;;;;5.05;3.30;;;;;;;;;;5051873;28;20127;-80
2023/09/27 11:40:42;;;;;;;6.53;3.53;;;;;;;;;;5051307;28;20047;-80
2023/09/27 11:43:08;;;;;;;6.50;3.53;;;;;;;;;;5046879;28;20045;-80
2023/09/27 11:45:47;;;;;;;5.43;3.60;;;;;;;;;;5051614;28;20036;-80
2023/09/27 11:48:14;;;;;;;8.60;3.88;;;;;;;;;;5051262;28;20052;-80
2023/09/27 11:50:39;;;;;;;6.82;4.00;;;;;;;;;;5051035;28;20040;-82
2023/09/27 11:53:05;;;;;;;6.15;3.42;;;;;;;;;;5058727;28;20028;-79
2023/09/27 11:55:30;;;;;;;6.22;3.42;;;;;;;;;;5054566;28;20048;-80
2023/09/27 11:57:59;;;;;;;6.15;3.47;;;;;;;;;;5051818;28;20041;-80
2023/09/27 12:00:25;;;;;;;5.75;3.70;;;;;;;;;;5053737;28;20078;-79
2023/09/27 12:02:51;;;;;;;6.90;4.15;;;;;;;;;;5052056;28;20033;-81
2023/09/27 12:05:17;;;;;;;7.40;3.70;;;;;;;;;;5054843;28;20032;-84
2023/09/27 12:07:44;;;;;;;6.68;4.20;;;;;;;;;;5055431;28;20041;-81
2023/09/27 12:10:10;;;;;;;8.10;4.15;;;;;;;;;;5054674;28;20040;-83
2023/09/27 12:12:36;;;;;;;7.07;4.30;;;;;;;;;;5055435;28;20041;-83
2023/09/27 12:15:03;;;;;;;10.52;4.53;;;;;;;;;;5054450;28;20562;-82
2023/09/27 12:17:30;;;;;;;5.70;3.70;;;;;;;;;;5054667;28;20028;-82
2023/09/27 12:19:56;;;;;;;8.10;3.67;;;;;;;;;;5056097;28;20031;-82
2023/09/27 12:22:24;;;;;;;5.07;3.50;;;;;;;;;;5051434;28;20473;-83
2023/09/27 12:24:50;;;;;;;8.05;4.10;;;;;;;;;;5057072;28;20047;-82
2023/09/27 12:27:16;;;;;;;6.47;3.95;;;;;;;;;;5055418;28;20037;-82
2023/09/27 12:29:41;;;;;;;8.38;3.63;;;;;;;;;;5053099;28;20037;-82
2023/09/27 12:32:07;;;;;;;8.85;3.85;;;;;;;;;;5056516;28;20430;-82
2023/09/27 12:34:32;;;;;;;7.07;3.90;;;;;;;;;;5047480;28;20029;-80
2023/09/27 12:36:58;;;;;;;6.95;3.80;;;;;;;;;;5046952;28;20474;-80
2023/09/27 12:39:23;;;;;;;8.57;3.50;;;;;;;;;;5052366;28;20041;-82
2023/09/27 12:41:49;;;;;;;6.82;3.50;;;;;;;;;;5050140;28;20025;-80
2023/09/27 12:44:15;;;;;;;7.00;3.50;;;;;;;;;;5049800;28;20505;-81
2023/09/27 12:46:40;;;;;;;5.90;3.50;;;;;;;;;;5052948;28;20033;-81
2023/09/27 12:49:06;;;;;;;7.15;3.83;;;;;;;;;;5052851;28;20037;-81
2023/09/27 12:51:31;;;;;;;6.75;4.15;;;;;;;;;;5052810;28;20033;-79
2023/09/27 12:53:57;;;;;;;9.75;3.85;;;;;;;;;;5051335;28;20094;-80
2023/09/27 12:56:22;;;;;;;9.63;3.40;;;;;;;;;;5052895;28;20036;-83
2023/09/27 12:58:48;;;;;;;6.03;4.00;;;;;;;;;;5052784;28;20029;-79
2023/09/27 13:01:15;;;;;;;5.90;3.55;;;;;;;;;;5049948;28;20049;-80
2023/09/27 13:03:41;;;;;;;7.85;3.60;;;;;;;;;;5050511;28;20029;-79
2023/09/27 13:06:06;;;;;;;8.77;3.75;;;;;;;;;;5052313;28;20475;-80
2023/09/27 13:08:34;;;;;;;7.10;3.70;;;;;;;;;;5063045;28;20785;-84
2023/09/27 13:11:00;;;;;;;5.88;3.60;;;;;;;;;;5055372;28;20041;-84
2023/09/27 13:13:27;;;;;;;7.20;3.67;;;;;;;;;;5057463;28;20033;-84
2023/09/27 13:15:52;;;;;;;6.60;3.58;;;;;;;;;;5056190;28;20543;-81
2023/09/27 13:18:17;;;;;;;6.75;3.53;;;;;;;;;;5054411;28;20041;-81
2023/09/27 13:20:43;;;;;;;8.73;3.70;;;;;;;;;;5054646;28;20029;-80
2023/09/27 13:23:08;;;;;;;8.75;3.70;;;;;;;;;;5055737;28;20445;-80
2023/09/27 13:25:34;;;;;;;9.55;4.07;;;;;;;;;;5054630;28;20044;-81
2023/09/27 13:27:59;;;;;;;8.80;3.70;;;;;;;;;;5054164;28;20037;-84
2023/09/27 13:30:27;;;;;;;9.32;3.42;;;;;;;;;;5055247;28;20080;-81
2023/09/27 13:32:52;;;;;;;8.45;4.38;;;;;;;;;;5053299;28;20045;-84
2023/09/27 13:35:18;;;;;;;8.20;4.00;;;;;;;;;;5057964;28;20036;-85
2023/09/27 13:37:43;;;;;;;11.18;3.90;;;;;;;;;;5056173;28;20036;-81
2023/09/27 13:40:12;;;;;;;6.18;3.88;;;;;;;;;;5061911;28;20082;-83
2023/09/27 13:42:41;;;;;;;9.50;3.90;;;;;;;;;;5057568;28;20071;-83
2023/09/27 13:45:15;;;;;;;6.45;3.95;;;;;;;;;;5056808;28;20496;-83
2023/09/27 13:47:41;;;;;;;6.70;3.70;;;;;;;;;;5052057;28;20411;-83
2023/09/27 13:50:09;;;;;;;7.32;3.85;;;;;;;;;;5055095;28;20091;-82
2023/09/27 13:52:34;;;;;;;6.18;3.80;;;;;;;;;;5055707;28;20110;-84
2023/09/27 13:55:00;;;;;;;7.50;3.75;;;;;;;;;;5056439;28;20037;-84
2023/09/27 13:57:27;;;;;;;8.55;3.90;;;;;;;;;;5056364;28;20063;-83
2023/09/27 13:59:53;;;;;;;6.32;3.92;;;;;;;;;;5056508;28;20092;-82
2023/09/27 14:02:18;;;;;;;6.50;4.07;;;;;;;;;;5062732;28;20048;-83
2023/09/27 14:04:44;;;;;;;8.57;4.10;;;;;;;;;;5061927;28;20037;-82
2023/09/27 14:07:10;;;;;;;10.48;4.03;;;;;;;;;;5058094;28;20029;-85
2023/09/27 14:09:35;;;;;;;8.65;4.10;;;;;;;;;;5056829;28;20037;-84
2023/09/27 14:12:01;;;;;;;7.05;4.20;;;;;;;;;;5047767;28;20041;-83
2023/09/27 14:14:26;;;;;;;7.10;3.60;;;;;;;;;;5049351;28;20035;-84
2023/09/27 14:16:52;;;;;;;7.47;3.85;;;;;;;;;;5051946;28;20383;-85
2023/09/27 14:19:17;;;;;;;8.50;3.70;;;;;;;;;;5053032;28;20033;-83
2023/09/27 14:21:44;;;;;;;5.63;3.47;;;;;;;;;;5051720;28;20106;-82
2023/09/27 14:24:10;;;;;;;9.10;4.10;;;;;;;;;;5052893;28;20155;-82
2023/09/27 14:26:36;;;;;;;5.38;3.50;;;;;;;;;;5066545;28;20044;-82
2023/09/27 14:29:03;;;;;;;6.97;3.85;;;;;;;;;;5049633;28;20033;-85
2023/09/27 14:31:31;;;;;;;6.03;3.70;;;;;;;;;;5057434;28;20107;-85
2023/09/27 14:33:57;;;;;;;7.38;3.60;;;;;;;;;;5059004;28;20044;-83
2023/09/27 14:36:24;;;;;;;9.77;4.00;;;;;;;;;;5058533;28;20033;-84
2023/09/27 14:38:50;;;;;;;11.05;3.83;;;;;;;;;;5059202;28;20043;-83
2023/09/27 14:41:15;;;;;;;13.13;4.47;;;;;;;;;;5058457;28;20101;-84
2023/09/27 14:43:41;;;;;;;8.32;4.40;;;;;;;;;;5058723;28;20494;-84
2023/09/27 14:46:10;;;;;;;6.32;4.00;;;;;;;;;;5058628;28;20037;-84